Time;durP1;ratioP1;P1;durP2;ratioP2;P2;SDS_P1;SDS_P2;PMS_P1;PMS_P2;Temp;Humidity;BMP_temperature;BMP_pressure;BME280_temperature;BME280_humidity;BME280_pressure;Samples;Min_cycle;Max_cycle;Signal;HPM_P1;HPM_P2
2022/07/10 00:01:01;;;;;;;9.88;7.88;;;;;;;22.83;100.00;100694.94;4979645;28;20048;-76
2022/07/10 00:03:49;;;;;;;10.02;7.45;;;;;;;23.14;100.00;100698.06;4978593;28;20041;-76
2022/07/10 00:06:35;;;;;;;9.50;7.53;;;;;;;23.23;100.00;100686.75;4979248;28;20117;-76
2022/07/10 00:09:22;;;;;;;8.75;7.60;;;;;;;23.09;100.00;100696.66;4979275;28;20396;-76
2022/07/10 00:12:07;;;;;;;9.57;7.63;;;;;;;22.98;100.00;100696.53;4978586;28;20030;-76
2022/07/10 00:14:53;;;;;;;9.10;7.88;;;;;;;23.15;100.00;100689.06;4979106;28;20505;-76
2022/07/10 00:17:40;;;;;;;9.85;7.57;;;;;;;22.46;100.00;100687.63;4978868;28;20026;-76
2022/07/10 00:20:26;;;;;;;9.52;7.63;;;;;;;22.56;100.00;100694.97;4978746;28;20023;-76
2022/07/10 00:23:11;;;;;;;12.95;8.02;;;;;;;22.70;100.00;100696.69;4978621;28;20560;-76
2022/07/10 00:25:57;;;;;;;8.48;7.68;;;;;;;23.20;100.00;100691.47;4979489;28;20416;-76
2022/07/10 00:28:43;;;;;;;8.23;7.50;;;;;;;22.87;100.00;100697.28;4980294;28;20438;-76
2022/07/10 00:31:29;;;;;;;11.15;7.85;;;;;;;22.48;100.00;100686.63;4979191;28;20041;-76
2022/07/10 00:34:14;;;;;;;8.68;7.78;;;;;;;22.76;100.00;100694.50;4977833;28;20069;-75
2022/07/10 00:37:01;;;;;;;10.98;7.93;;;;;;;22.68;100.00;100680.81;4965236;28;20030;-76
2022/07/10 00:39:47;;;;;;;11.40;8.05;;;;;;;22.62;100.00;100686.53;4979235;28;20558;-77
2022/07/10 00:42:33;;;;;;;12.88;8.70;;;;;;;22.94;100.00;100685.22;4979103;28;20045;-76
2022/07/10 00:45:19;;;;;;;9.52;8.10;;;;;;;23.16;100.00;100676.56;4979347;28;20089;-76
2022/07/10 00:48:04;;;;;;;14.93;11.47;;;;;;;23.31;100.00;100680.88;4979070;28;20073;-76
2022/07/10 00:50:51;;;;;;;14.57;12.05;;;;;;;23.08;100.00;100671.72;4978020;28;20060;-76
2022/07/10 00:53:37;;;;;;;9.60;7.60;;;;;;;23.20;100.00;100668.25;4964318;28;20073;-76
2022/07/10 00:56:25;;;;;;;8.98;8.18;;;;;;;23.11;100.00;100676.88;4964758;28;20058;-76
2022/07/10 00:59:11;;;;;;;9.70;8.07;;;;;;;23.11;100.00;100673.38;4978430;28;20455;-74
2022/07/10 01:01:57;;;;;;;10.20;8.38;;;;;;;22.96;100.00;100680.63;4978652;28;20073;-76
2022/07/10 01:04:43;;;;;;;11.63;8.70;;;;;;;23.10;100.00;100669.81;4978460;28;20031;-76
2022/07/10 01:07:28;;;;;;;13.23;9.65;;;;;;;22.38;100.00;100676.63;4977061;28;20027;-77
2022/07/10 01:10:14;;;;;;;11.63;9.60;;;;;;;22.02;100.00;100682.56;4978601;28;20034;-76
2022/07/10 01:13:02;;;;;;;11.25;10.10;;;;;;;22.61;100.00;100679.50;4978182;28;20058;-76
2022/07/10 01:15:48;;;;;;;13.00;10.60;;;;;;;22.75;100.00;100684.75;4977965;28;20073;-76
2022/07/10 01:18:34;;;;;;;11.52;10.25;;;;;;;22.96;100.00;100677.09;4977100;28;20026;-76
2022/07/10 01:21:31;;;;;;;14.70;11.23;;;;;;;22.75;100.00;100665.22;4964420;28;20097;-76
2022/07/10 01:24:17;;;;;;;11.13;10.02;;;;;;;22.61;100.00;100666.16;4977216;28;20030;-76
2022/07/10 01:27:03;;;;;;;11.52;9.95;;;;;;;22.78;100.00;100663.16;4977141;28;20034;-76
2022/07/10 01:29:51;;;;;;;12.00;10.18;;;;;;;22.53;100.00;100659.59;4977586;28;20049;-77
2022/07/10 01:32:40;;;;;;;13.95;10.10;;;;;;;22.41;100.00;100661.25;4977186;28;20034;-76
2022/07/10 01:35:26;;;;;;;13.25;10.43;;;;;;;22.56;100.00;100662.06;4976933;28;20425;-76
2022/07/10 01:38:12;;;;;;;11.68;10.45;;;;;;;22.95;100.00;100664.69;4976742;28;20038;-76
2022/07/10 01:40:58;;;;;;;11.65;10.45;;;;;;;22.78;100.00;100660.50;4977214;28;20461;-76
2022/07/10 01:43:44;;;;;;;13.10;10.50;;;;;;;22.81;100.00;100662.09;4976205;28;20090;-76
2022/07/10 01:46:30;;;;;;;13.45;11.20;;;;;;;22.91;100.00;100657.84;4964044;28;20027;-76
2022/07/10 01:49:16;;;;;;;13.13;11.63;;;;;;;22.48;100.00;100659.94;4976053;28;20030;-76
2022/07/10 01:52:02;;;;;;;15.32;12.10;;;;;;;22.49;100.00;100658.09;4976457;28;20042;-76
2022/07/10 01:54:48;;;;;;;13.43;12.02;;;;;;;22.61;100.00;100660.81;4976618;28;20065;-76
2022/07/10 01:57:34;;;;;;;13.45;11.07;;;;;;;21.84;100.00;100654.41;4961313;28;20033;-76
2022/07/10 02:00:20;;;;;;;16.77;12.07;;;;;;;21.81;100.00;100651.94;4962603;28;20105;-76
2022/07/10 02:06:11;;;;;;;16.13;12.98;;;;;;;21.84;100.00;100650.88;4976651;28;20386;-75
2022/07/10 02:08:56;;;;;;;15.35;12.07;;;;;;;22.34;100.00;100651.09;4976515;28;20099;-76
2022/07/10 02:11:42;;;;;;;13.63;11.88;;;;;;;22.32;100.00;100655.66;4975816;28;20058;-77
2022/07/10 02:14:28;;;;;;;13.52;12.10;;;;;;;21.95;100.00;100646.53;4976581;28;20030;-76
2022/07/10 02:17:15;;;;;;;13.30;11.90;;;;;;;21.54;100.00;100648.31;4977113;28;20054;-76
2022/07/10 02:20:01;;;;;;;15.90;12.10;;;;;;;21.97;100.00;100652.66;4961770;28;20027;-76
2022/07/10 02:22:47;;;;;;;13.88;12.43;;;;;;;22.46;100.00;100656.47;4976944;28;20026;-77
2022/07/10 02:25:34;;;;;;;13.38;11.90;;;;;;;22.56;100.00;100646.03;4976274;28;20034;-76
2022/07/10 02:28:19;;;;;;;15.18;11.45;;;;;;;22.31;100.00;100649.47;4976236;28;20058;-76
2022/07/10 02:31:05;;;;;;;16.75;12.60;;;;;;;22.46;100.00;100645.81;4978384;28;20034;-75
2022/07/10 02:33:51;;;;;;;13.52;12.13;;;;;;;21.92;100.00;100649.44;4979773;28;20027;-74
2022/07/10 02:36:38;;;;;;;13.55;12.07;;;;;;;22.38;100.00;100650.78;4966248;28;20027;-74
2022/07/10 02:39:24;;;;;;;15.45;12.57;;;;;;;22.48;100.00;100659.94;4966937;28;20093;-75
2022/07/10 02:42:09;;;;;;;13.95;12.30;;;;;;;22.68;100.00;100656.75;4979078;28;20031;-75
2022/07/10 02:44:55;;;;;;;14.73;11.90;;;;;;;22.70;100.00;100656.63;4980448;28;20022;-75
2022/07/10 02:47:41;;;;;;;15.40;12.32;;;;;;;22.59;100.00;100646.69;4979116;28;20077;-75
2022/07/10 02:50:27;;;;;;;13.75;11.80;;;;;;;22.58;100.00;100653.00;4979413;28;20167;-76
2022/07/10 02:53:13;;;;;;;14.40;12.27;;;;;;;22.20;100.00;100656.47;4980118;28;20023;-75
2022/07/10 02:55:58;;;;;;;14.10;12.60;;;;;;;22.64;100.00;100649.06;4977619;28;20058;-76
2022/07/10 02:58:44;;;;;;;15.00;13.23;;;;;;;22.63;100.00;100653.53;4978771;28;20037;-77
2022/07/10 03:01:30;;;;;;;15.98;13.38;;;;;;;22.48;100.00;100657.25;4964050;28;20386;-76
2022/07/10 03:04:16;;;;;;;15.18;13.20;;;;;;;22.32;100.00;100650.31;4978655;28;20041;-75
2022/07/10 03:07:01;;;;;;;15.77;12.77;;;;;;;22.50;100.00;100663.34;4978660;28;20034;-76
2022/07/10 03:09:47;;;;;;;15.60;12.45;;;;;;;22.74;100.00;100660.81;4976966;28;20074;-75
2022/07/10 03:12:33;;;;;;;14.32;12.18;;;;;;;22.28;100.00;100663.03;4964017;28;20369;-76
2022/07/10 03:15:19;;;;;;;13.57;12.18;;;;;;;22.06;100.00;100652.03;4980004;28;20041;-75
2022/07/10 03:18:04;;;;;;;14.20;12.63;;;;;;;22.43;100.00;100650.47;4979078;28;20088;-75
2022/07/10 03:20:50;;;;;;;15.70;12.70;;;;;;;22.41;100.00;100649.69;4977680;28;20027;-75
2022/07/10 03:23:36;;;;;;;19.25;13.52;;;;;;;22.68;100.00;100647.88;4975025;28;20031;-77
2022/07/10 03:26:22;;;;;;;14.00;12.50;;;;;;;22.67;100.00;100648.84;4974901;28;20038;-77
2022/07/10 03:29:08;;;;;;;14.90;12.18;;;;;;;22.50;100.00;100652.66;4975292;28;20034;-76
2022/07/10 03:31:54;;;;;;;15.30;13.00;;;;;;;22.56;100.00;100652.25;4962740;28;20449;-76
2022/07/10 03:34:39;;;;;;;16.17;12.88;;;;;;;22.50;100.00;100647.31;4975393;28;20030;-77
2022/07/10 03:37:25;;;;;;;13.95;12.45;;;;;;;22.52;100.00;100645.41;4974967;28;20026;-76
2022/07/10 03:40:11;;;;;;;14.95;12.77;;;;;;;22.17;100.00;100644.19;4975227;28;20027;-76
2022/07/10 03:42:57;;;;;;;16.50;13.05;;;;;;;22.27;100.00;100639.09;4961940;28;20030;-77
2022/07/10 03:45:43;;;;;;;14.63;13.13;;;;;;;22.66;100.00;100634.63;4975067;28;20027;-76
2022/07/10 03:48:28;;;;;;;16.13;13.68;;;;;;;22.06;100.00;100640.53;4975252;28;20505;-77
2022/07/10 03:51:14;;;;;;;16.13;13.32;;;;;;;22.74;100.00;100645.66;4962118;28;20429;-77
2022/07/10 03:54:00;;;;;;;17.90;13.02;;;;;;;22.20;100.00;100649.34;4974521;28;20432;-76
2022/07/10 03:59:50;;;;;;;15.35;13.45;;;;;;;22.71;100.00;100653.84;4975206;28;20030;-76
2022/07/10 04:02:36;;;;;;;14.82;13.00;;;;;;;22.98;100.00;100646.63;4975097;28;20406;-77
2022/07/10 04:05:22;;;;;;;14.93;13.27;;;;;;;22.86;100.00;100667.97;4974657;28;20434;-76
2022/07/10 04:08:08;;;;;;;15.57;13.45;;;;;;;22.72;100.00;100663.59;4974629;28;20029;-77
2022/07/10 04:10:54;;;;;;;16.08;14.23;;;;;;;22.97;100.00;100671.66;4975293;28;20023;-76
2022/07/10 04:13:40;;;;;;;15.18;13.63;;;;;;;22.74;100.00;100677.69;4975520;28;20027;-76
2022/07/10 04:16:26;;;;;;;15.25;13.65;;;;;;;22.94;100.00;100668.31;4975482;28;20018;-77
2022/07/10 04:19:11;;;;;;;14.63;12.77;;;;;;;22.94;100.00;100663.84;4961216;28;20023;-76
2022/07/10 04:21:57;;;;;;;18.85;14.27;;;;;;;22.61;100.00;100665.28;4975340;28;20373;-76
2022/07/10 04:24:43;;;;;;;18.50;13.95;;;;;;;22.24;100.00;100672.19;4974588;28;20019;-76
2022/07/10 04:27:29;;;;;;;16.30;14.60;;;;;;;22.53;100.00;100680.97;4961658;28;20089;-76
2022/07/10 04:30:14;;;;;;;16.20;14.50;;;;;;;22.81;100.00;100675.47;4975041;28;20050;-77
2022/07/10 04:33:00;;;;;;;16.70;14.13;;;;;;;22.18;100.00;100677.09;4974483;28;20038;-76
2022/07/10 04:35:46;;;;;;;17.90;14.48;;;;;;;22.37;100.00;100667.75;4974774;28;20298;-77
2022/07/10 04:38:32;;;;;;;16.75;14.95;;;;;;;22.34;100.00;100661.78;4974274;28;20130;-77
2022/07/10 04:41:18;;;;;;;19.58;15.20;;;;;;;22.56;100.00;100662.06;4974205;28;20042;-76
2022/07/10 04:44:04;;;;;;;18.25;14.70;;;;;;;22.77;100.00;100676.63;4977973;28;20033;-77
2022/07/10 04:46:49;;;;;;;16.05;13.90;;;;;;;22.37;100.00;100673.09;4978546;28;20023;-77
2022/07/10 04:49:35;;;;;;;16.48;14.70;;;;;;;22.07;100.00;100675.09;4977726;28;20474;-76
2022/07/10 04:52:21;;;;;;;17.20;14.45;;;;;;;22.41;100.00;100677.28;4963746;28;20031;-76
2022/07/10 04:55:07;;;;;;;15.43;13.82;;;;;;;22.97;100.00;100678.78;4977515;28;20070;-77
2022/07/10 04:57:53;;;;;;;15.75;13.77;;;;;;;22.78;100.00;100681.88;4977788;28;20034;-77
2022/07/10 05:00:39;;;;;;;15.85;14.25;;;;;;;22.87;100.00;100681.25;4977883;28;20023;-77
2022/07/10 05:03:24;;;;;;;18.60;13.82;;;;;;;22.95;100.00;100681.56;4977965;28;20023;-77
2022/07/10 05:06:10;;;;;;;15.27;13.68;;;;;;;22.38;100.00;100682.81;4977862;28;20026;-77
2022/07/10 05:08:56;;;;;;;15.27;13.75;;;;;;;22.65;100.00;100686.34;4963874;28;20089;-77
2022/07/10 05:11:42;;;;;;;15.10;13.50;;;;;;;22.94;100.00;100679.88;4977474;28;20104;-77
2022/07/10 05:14:27;;;;;;;16.27;14.15;;;;;;;22.73;100.00;100688.50;4976774;28;20081;-77
2022/07/10 05:17:13;;;;;;;15.95;13.90;;;;;;;22.28;100.00;100680.84;4978037;28;20334;-77
2022/07/10 05:19:59;;;;;;;16.48;14.35;;;;;;;22.82;100.00;100686.06;4964353;28;20037;-77
2022/07/10 05:22:45;;;;;;;16.02;14.35;;;;;;;22.59;100.00;100689.41;4977707;28;20117;-77
2022/07/10 05:25:32;;;;;;;16.08;14.38;;;;;;;22.88;100.00;100696.34;4976544;28;20038;-77
2022/07/10 05:28:17;;;;;;;15.95;13.75;;;;;;;23.16;100.00;100692.59;4963650;28;20476;-76
2022/07/10 05:31:03;;;;;;;15.00;13.40;;;;;;;23.12;100.00;100693.78;4964379;28;20109;-76
2022/07/10 05:33:49;;;;;;;16.40;13.75;;;;;;;23.24;100.00;100692.97;4976879;28;20437;-77
2022/07/10 05:36:35;;;;;;;14.07;12.65;;;;;;;23.35;100.00;100695.75;4964011;28;20027;-77
2022/07/10 05:39:21;;;;;;;15.95;14.25;;;;;;;23.45;100.00;100688.78;4977580;28;20031;-77
2022/07/10 05:42:07;;;;;;;16.95;14.25;;;;;;;23.58;100.00;100691.44;4977099;28;20081;-77
2022/07/10 05:44:53;;;;;;;31.70;24.17;;;;;;;24.14;100.00;100691.72;4977159;28;20370;-76
2022/07/10 05:47:39;;;;;;;22.02;17.05;;;;;;;23.88;100.00;100690.09;4977625;28;20034;-77
2022/07/10 05:50:25;;;;;;;22.75;18.45;;;;;;;23.89;100.00;100690.94;4976818;28;20022;-77
2022/07/10 05:53:10;;;;;;;30.98;24.42;;;;;;;23.87;100.00;100684.84;4976766;28;20038;-77
2022/07/10 05:56:00;;;;;;;15.55;13.95;;;;;;;23.97;100.00;100683.22;4976705;28;20051;-76
2022/07/10 05:58:46;;;;;;;15.35;12.82;;;;;;;24.44;100.00;100681.44;4977115;28;20023;-77
2022/07/10 06:01:32;;;;;;;13.82;12.15;;;;;;;24.44;100.00;100684.13;4976682;28;20035;-76
2022/07/10 06:04:18;;;;;;;21.55;14.77;;;;;;;24.16;100.00;100687.13;4976822;28;20064;-77
2022/07/10 06:07:04;;;;;;;17.13;14.40;;;;;;;23.65;100.00;100679.31;4976437;28;20022;-77
2022/07/10 06:09:50;;;;;;;14.60;13.05;;;;;;;24.26;100.00;100690.81;4976879;28;20027;-77
2022/07/10 06:12:37;;;;;;;17.65;15.20;;;;;;;24.24;100.00;100684.75;4976768;28;20026;-77
2022/07/10 06:15:22;;;;;;;17.42;15.50;;;;;;;24.57;100.00;100686.72;4976412;28;20049;-77
2022/07/10 06:18:08;;;;;;;16.58;14.88;;;;;;;24.46;100.00;100689.34;4976896;28;20022;-77
2022/07/10 06:20:54;;;;;;;15.13;13.50;;;;;;;24.67;100.00;100690.44;4976139;28;20102;-77
2022/07/10 06:23:40;;;;;;;18.45;14.40;;;;;;;24.93;100.00;100690.16;4976534;28;20033;-77
2022/07/10 06:26:25;;;;;;;14.93;13.18;;;;;;;25.07;100.00;100689.09;4963396;28;20093;-76
2022/07/10 06:29:11;;;;;;;17.05;14.05;;;;;;;24.91;100.00;100693.94;4976038;28;20106;-77
2022/07/10 06:31:57;;;;;;;17.05;13.13;;;;;;;24.81;100.00;100687.56;4962727;28;20026;-77
2022/07/10 06:34:43;;;;;;;17.08;14.18;;;;;;;24.82;100.00;100691.94;4976312;28;20022;-77
2022/07/10 06:37:29;;;;;;;16.40;13.98;;;;;;;25.26;100.00;100684.84;4976205;28;20469;-77
2022/07/10 06:40:14;;;;;;;17.25;13.93;;;;;;;25.54;100.00;100676.38;4976208;28;20372;-76
2022/07/10 06:43:00;;;;;;;14.55;12.38;;;;;;;25.62;100.00;100686.47;4975915;28;20039;-76
2022/07/10 06:45:47;;;;;;;15.57;12.93;;;;;;;25.50;100.00;100685.63;4962484;28;20114;-77
2022/07/10 06:48:35;;;;;;;14.50;12.70;;;;;;;25.67;100.00;100695.00;4975835;28;20030;-77
2022/07/10 06:51:21;;;;;;;15.15;12.85;;;;;;;26.01;100.00;100686.84;4962947;28;20122;-76
2022/07/10 06:54:07;;;;;;;13.77;12.32;;;;;;;26.44;100.00;100697.59;4975779;28;20054;-77
2022/07/10 06:56:53;;;;;;;16.67;12.60;;;;;;;25.83;100.00;100682.94;4975873;28;20039;-77
2022/07/10 06:59:38;;;;;;;14.85;12.95;;;;;;;24.97;100.00;100685.41;4975612;28;20030;-79
2022/07/10 07:02:25;;;;;;;14.38;12.88;;;;;;;24.66;100.00;100678.88;4975884;28;20051;-77
2022/07/10 07:05:12;;;;;;;14.52;12.68;;;;;;;24.89;100.00;100675.28;4974550;28;20449;-76
2022/07/10 07:07:58;;;;;;;13.73;12.43;;;;;;;25.05;100.00;100677.63;4961981;28;20034;-76
2022/07/10 07:10:44;;;;;;;13.65;12.23;;;;;;;24.92;100.00;100674.19;4975885;28;20038;-76
2022/07/10 07:13:30;;;;;;;12.60;11.25;;;;;;;25.51;100.00;100681.13;4974996;28;20460;-76
2022/07/10 07:16:18;;;;;;;12.07;10.73;;;;;;;25.46;100.00;100680.63;4976158;28;20365;-76
2022/07/10 07:19:05;;;;;;;13.15;11.85;;;;;;;25.70;100.00;100673.28;4975601;28;20469;-76
2022/07/10 07:24:55;;;;;;;12.98;11.60;;;;;;;25.58;100.00;100669.78;4988733;28;20094;-77
2022/07/10 07:27:41;;;;;;;11.48;10.32;;;;;;;25.59;100.00;100668.78;4978558;28;20038;-78
2022/07/10 07:30:28;;;;;;;12.48;10.68;;;;;;;26.30;100.00;100677.25;4976501;28;20062;-77
2022/07/10 07:33:14;;;;;;;13.88;9.93;;;;;;;26.51;100.00;100682.66;4975662;28;20023;-77
2022/07/10 07:36:00;;;;;;;12.90;10.35;;;;;;;26.40;100.00;100677.34;4976199;28;20066;-77
2022/07/10 07:38:46;;;;;;;12.18;9.50;;;;;;;26.32;100.00;100674.44;4961650;28;20019;-77
2022/07/10 07:41:31;;;;;;;12.70;8.93;;;;;;;27.31;100.00;100665.84;4985407;28;20022;-77
2022/07/10 07:44:17;;;;;;;9.60;8.60;;;;;;;27.94;100.00;100673.66;4975090;28;20061;-79
2022/07/10 07:47:03;;;;;;;8.15;7.45;;;;;;;26.90;100.00;100673.94;4978949;28;20038;-78
2022/07/10 07:49:49;;;;;;;9.70;7.40;;;;;;;26.54;100.00;100663.59;4962725;28;20034;-77
2022/07/10 07:52:35;;;;;;;8.88;7.28;;;;;;;27.25;97.61;100653.78;4976029;28;20022;-77
2022/07/10 07:55:21;;;;;;;8.25;7.40;;;;;;;27.70;96.59;100659.66;4975258;28;20050;-76
2022/07/10 07:58:07;;;;;;;8.48;6.93;;;;;;;27.01;99.86;100660.44;4975505;28;20410;-76
2022/07/10 08:00:53;;;;;;;8.82;8.02;;;;;;;27.08;100.00;100664.28;4976192;28;20049;-77
2022/07/10 08:03:38;;;;;;;10.43;7.28;;;;;;;27.33;97.80;100663.91;4975803;28;20018;-76
2022/07/10 08:06:24;;;;;;;12.52;9.65;;;;;;;27.30;96.83;100662.34;4975562;28;20027;-76
2022/07/10 08:09:10;;;;;;;8.90;7.60;;;;;;;27.23;97.68;100669.22;4961932;28;20034;-76
2022/07/10 08:11:56;;;;;;;7.32;6.45;;;;;;;26.75;100.00;100675.22;4976342;28;20039;-76
2022/07/10 08:14:41;;;;;;;8.55;7.53;;;;;;;26.84;100.00;100663.72;4974671;28;20042;-78
2022/07/10 08:17:27;;;;;;;8.73;7.13;;;;;;;26.49;100.00;100666.66;4977715;28;20034;-77
2022/07/10 08:20:13;;;;;;;7.68;6.97;;;;;;;27.35;100.00;100659.22;4965451;28;20045;-77
2022/07/10 08:22:59;;;;;;;10.32;6.93;;;;;;;27.35;99.30;100659.22;4979766;28;20026;-77
2022/07/10 08:25:45;;;;;;;9.23;7.28;;;;;;;26.74;100.00;100662.78;4979189;28;20042;-75
2022/07/10 08:28:31;;;;;;;7.82;7.03;;;;;;;28.06;96.44;100658.22;4978997;28;20027;-76
2022/07/10 08:31:16;;;;;;;9.10;7.65;;;;;;;27.87;100.00;100675.19;4978673;28;20038;-77
2022/07/10 08:34:02;;;;;;;11.43;8.20;;;;;;;28.23;100.00;100661.06;4978728;28;20023;-77
2022/07/10 08:36:48;;;;;;;8.20;7.40;;;;;;;28.42;100.00;100658.44;4978967;28;20089;-77
2022/07/10 08:39:34;;;;;;;9.00;7.60;;;;;;;29.11;95.17;100667.19;4979059;28;20089;-76
2022/07/10 08:42:21;;;;;;;8.98;8.07;;;;;;;28.91;97.39;100660.09;4965968;28;20105;-76
2022/07/10 08:45:07;;;;;;;11.15;7.40;;;;;;;28.35;100.00;100659.97;4978918;28;20077;-77
2022/07/10 08:47:55;;;;;;;8.50;7.60;;;;;;;29.16;96.00;100664.88;4965744;28;20030;-77
2022/07/10 08:50:44;;;;;;;8.70;7.90;;;;;;;29.48;93.33;100650.00;4965180;28;20023;-77
2022/07/10 08:53:32;;;;;;;9.93;8.00;;;;;;;28.12;100.00;100655.81;4965254;28;20050;-76
2022/07/10 08:56:18;;;;;;;13.05;8.10;;;;;;;27.70;99.78;100651.56;4978275;28;20495;-76
2022/07/10 08:59:06;;;;;;;10.73;7.00;;;;;;;27.56;98.87;100657.31;4978173;28;20052;-75
2022/07/10 09:01:53;;;;;;;9.43;7.78;;;;;;;28.23;95.18;100662.91;4977843;28;20031;-77
2022/07/10 09:04:39;;;;;;;7.55;6.85;;;;;;;29.17;84.19;100662.06;4978054;28;20034;-77
2022/07/10 09:07:34;;;;;;;7.00;6.35;;;;;;;29.53;84.16;100658.50;4977697;28;20081;-77
2022/07/10 09:10:21;;;;;;;7.32;6.63;;;;;;;28.85;88.30;100650.72;4978307;28;20027;-77
2022/07/10 09:13:07;;;;;;;10.05;6.72;;;;;;;29.77;80.99;100652.63;4977203;28;20073;-78
2022/07/10 09:15:54;;;;;;;17.85;7.53;;;;;;;30.01;79.25;100652.91;4977756;28;20023;-76
2022/07/10 09:18:39;;;;;;;7.20;6.50;;;;;;;29.14;78.04;100646.16;4977404;28;20030;-76
2022/07/10 09:21:25;;;;;;;7.57;5.90;;;;;;;29.07;81.22;100644.19;4964683;28;20022;-78
2022/07/10 09:24:11;;;;;;;8.50;6.20;;;;;;;28.62;84.53;100638.56;4976886;28;20100;-77
2022/07/10 09:26:57;;;;;;;9.73;6.65;;;;;;;28.86;79.54;100641.66;4977744;28;20023;-77
2022/07/10 09:29:48;;;;;;;7.30;6.35;;;;;;;28.99;78.79;100635.94;4978006;28;20381;-76
2022/07/10 09:32:34;;;;;;;7.38;6.40;;;;;;;28.47;80.94;100640.00;4977160;28;20377;-76
2022/07/10 09:38:25;;;;;;;6.85;6.15;;;;;;;27.62;85.91;100632.56;4977548;28;20476;-77
2022/07/10 09:41:15;;;;;;;6.60;5.97;;;;;;;28.14;81.21;100634.97;4977691;28;20034;-77
2022/07/10 09:44:04;;;;;;;6.57;5.88;;;;;;;27.74;83.07;100636.84;4976952;28;20034;-77
2022/07/10 09:46:50;;;;;;;7.32;5.78;;;;;;;27.84;85.63;100637.75;4977133;28;20093;-77
2022/07/10 09:49:35;;;;;;;5.50;5.00;;;;;;;27.87;84.86;100645.56;4977010;28;20027;-77
2022/07/10 09:52:21;;;;;;;10.13;6.13;;;;;;;27.18;90.50;100630.22;4964092;28;20038;-76
2022/07/10 09:55:07;;;;;;;6.82;6.13;;;;;;;28.01;84.62;100631.72;4977440;28;20061;-76
2022/07/10 09:58:02;;;;;;;8.10;5.70;;;;;;;28.35;82.45;100635.69;4977158;28;20031;-71
2022/07/10 10:00:50;;;;;;;6.72;5.72;;;;;;;28.79;81.45;100621.66;4964067;28;20023;-75
2022/07/10 10:03:38;;;;;;;7.10;6.40;;;;;;;28.78;83.39;100621.78;4976985;28;20041;-77
2022/07/10 10:06:27;;;;;;;7.15;6.20;;;;;;;28.82;85.39;100620.50;4977651;28;20030;-77
2022/07/10 10:09:26;;;;;;;7.75;6.93;;;;;;;28.74;86.71;100614.97;4976514;28;20054;-77
2022/07/10 10:12:39;;;;;;;7.63;6.80;;;;;;;28.00;92.77;100611.13;4963907;28;20456;-76
2022/07/10 10:15:26;;;;;;;9.05;7.40;;;;;;;27.82;95.83;100609.25;4976492;28;20038;-77
2022/07/10 10:18:12;;;;;;;15.82;11.68;;;;;;;28.40;93.95;100617.25;4964128;28;20505;-76
2022/07/10 10:20:58;;;;;;;11.68;8.73;;;;;;;28.74;93.37;100602.34;4976316;28;20026;-75
2022/07/10 10:23:44;;;;;;;10.05;9.07;;;;;;;28.06;95.78;100604.34;4962528;28;20105;-77
2022/07/10 10:26:30;;;;;;;11.55;8.98;;;;;;;28.48;88.66;100593.16;4963195;28;20136;-76
2022/07/10 10:29:16;;;;;;;12.43;10.07;;;;;;;27.58;94.58;100596.13;4975995;28;20345;-76
2022/07/10 10:32:03;;;;;;;13.95;10.25;;;;;;;28.76;91.34;100594.97;4976077;28;20394;-77
2022/07/10 10:34:56;;;;;;;10.52;9.02;;;;;;;29.49;80.65;100595.00;4976411;28;20045;-77
2022/07/10 10:37:44;;;;;;;10.20;8.52;;;;;;;29.34;80.86;100587.56;4962886;28;20472;-76
2022/07/10 10:40:32;;;;;;;8.57;7.72;;;;;;;29.80;75.78;100591.03;4961881;28;20448;-76
2022/07/10 10:43:23;;;;;;;10.00;7.20;;;;;;;29.51;71.71;100584.06;4976625;28;20097;-76
2022/07/10 10:46:25;;;;;;;8.27;6.20;;;;;;;29.52;69.96;100575.81;4963072;28;20039;-77
2022/07/10 10:49:10;;;;;;;9.98;5.70;;;;;;;29.95;69.13;100581.41;4962205;28;20027;-76
2022/07/10 10:52:06;;;;;;;7.00;5.40;;;;;;;30.16;68.01;100576.56;4976832;28;20038;-76
2022/07/10 10:55:00;;;;;;;6.13;4.95;;;;;;;30.35;62.43;100571.00;4975599;28;20059;-76
2022/07/10 10:57:50;;;;;;;5.22;4.82;;;;;;;31.11;58.30;100562.06;4975531;28;20033;-76
2022/07/10 11:00:41;;;;;;;10.02;6.75;;;;;;;30.63;62.74;100571.72;4975876;28;20054;-75
2022/07/10 11:03:26;;;;;;;9.48;8.20;;;;;;;30.40;66.36;100567.81;4975373;28;20026;-77
2022/07/10 11:06:13;;;;;;;11.30;8.27;;;;;;;31.03;63.76;100563.91;4975840;28;20034;-78
2022/07/10 11:09:02;;;;;;;10.15;7.38;;;;;;;30.65;66.68;100561.56;4976011;28;20031;-76
2022/07/10 11:12:03;;;;;;;7.72;7.03;;;;;;;30.33;68.03;100564.88;4975403;28;20030;-76
2022/07/10 11:14:52;;;;;;;7.93;6.65;;;;;;;29.22;75.03;100553.66;4962349;28;20023;-77
2022/07/10 11:17:39;;;;;;;9.10;6.95;;;;;;;29.51;73.07;100552.50;4962654;28;20035;-76
2022/07/10 11:20:25;;;;;;;7.75;6.10;;;;;;;30.02;70.00;100551.91;4975985;28;20521;-77
2022/07/10 11:23:35;;;;;;;8.07;6.72;;;;;;;30.43;66.41;100545.88;4976405;28;20058;-76
2022/07/10 11:26:21;;;;;;;8.68;7.60;;;;;;;29.66;71.13;100553.72;4975507;28;20019;-77
2022/07/10 11:29:07;;;;;;;11.00;7.78;;;;;;;29.88;67.39;100545.19;4962355;28;20453;-77
2022/07/10 11:31:54;;;;;;;9.30;6.18;;;;;;;30.08;63.68;100552.13;4975856;28;20026;-76
2022/07/10 11:34:39;;;;;;;7.25;5.70;;;;;;;30.04;64.32;100534.53;4975539;28;20042;-76
2022/07/10 11:37:29;;;;;;;6.10;5.53;;;;;;;30.85;60.31;100526.06;4975408;28;20058;-76
2022/07/10 11:40:15;;;;;;;5.75;4.85;;;;;;;31.29;59.38;100527.69;4962007;28;20023;-76
2022/07/10 11:43:04;;;;;;;7.95;5.05;;;;;;;30.45;59.93;100533.88;4975761;28;20031;-76
2022/07/10 11:45:52;;;;;;;4.97;4.32;;;;;;;30.80;56.07;100528.41;4975248;28;20037;-76
2022/07/10 11:48:41;;;;;;;5.30;4.45;;;;;;;30.98;54.68;100526.47;4975624;28;20031;-76
2022/07/10 11:51:29;;;;;;;8.35;4.50;;;;;;;30.52;56.28;100515.16;4978664;28;20030;-76
2022/07/10 11:54:18;;;;;;;5.82;4.85;;;;;;;29.88;60.63;100523.56;4968336;28;20440;-77
2022/07/10 11:57:06;;;;;;;6.22;4.82;;;;;;;30.89;56.68;100507.66;4981985;28;20093;-76
2022/07/10 11:59:52;;;;;;;9.30;4.93;;;;;;;30.67;57.37;100511.75;4968049;28;20112;-76
2022/07/10 12:02:38;;;;;;;8.15;4.75;;;;;;;31.10;56.54;100518.94;4968456;28;20026;-76
2022/07/10 12:05:35;;;;;;;5.10;4.60;;;;;;;30.53;58.08;100512.31;4967849;28;20118;-75
2022/07/10 12:08:21;;;;;;;5.55;4.50;;;;;;;30.14;58.30;100519.09;4967943;28;20360;-76
2022/07/10 12:11:14;;;;;;;5.78;4.47;;;;;;;31.25;54.42;100512.78;4967715;28;20042;-76
2022/07/10 12:14:16;;;;;;;4.78;4.30;;;;;;;30.87;53.09;100501.56;4981231;28;20086;-77
2022/07/10 12:17:11;;;;;;;5.32;4.53;;;;;;;31.01;53.95;100509.91;4981725;28;20115;-77
2022/07/10 12:19:57;;;;;;;5.82;4.30;;;;;;;30.30;56.75;100500.31;4982550;28;20061;-77
2022/07/10 12:22:42;;;;;;;5.32;4.25;;;;;;;30.35;59.42;100500.72;4981266;28;20038;-77
2022/07/10 12:25:29;;;;;;;6.82;4.82;;;;;;;29.23;61.78;100504.94;4981283;28;20062;-75
2022/07/10 12:28:14;;;;;;;5.85;4.45;;;;;;;30.16;57.88;100511.69;4981403;28;20030;-75
2022/07/10 12:31:00;;;;;;;5.40;4.90;;;;;;;30.55;55.08;100507.59;4968304;28;20023;-77
2022/07/10 12:33:51;;;;;;;4.78;4.35;;;;;;;30.86;54.29;100503.41;4981345;28;20045;-77
2022/07/10 12:36:53;;;;;;;4.78;4.10;;;;;;;30.96;53.01;100501.44;4980901;28;20030;-77
2022/07/10 12:39:53;;;;;;;4.93;4.10;;;;;;;30.07;53.18;100498.22;4981752;28;20019;-77
2022/07/10 12:42:39;;;;;;;4.50;3.80;;;;;;;30.46;51.48;100492.31;4981132;28;20042;-76
2022/07/10 12:45:24;;;;;;;5.43;3.95;;;;;;;30.58;53.05;100482.94;4980885;28;20034;-76
2022/07/10 12:48:22;;;;;;;4.60;4.15;;;;;;;30.43;51.86;100475.56;4981274;28;20030;-76
2022/07/10 12:51:24;;;;;;;4.20;3.85;;;;;;;30.07;52.53;100480.19;4981856;28;20023;-76
2022/07/10 12:54:38;;;;;;;6.03;4.00;;;;;;;31.16;50.68;100470.41;4954510;28;20047;-76